createdAt,value
2024-01-15T00:03:07.986Z,99753.69
2024-01-15T00:08:09.536Z,99736.03
2024-01-15T00:13:11.005Z,99743.28
2024-01-15T00:18:12.695Z,99724.97
2024-01-15T00:23:14.296Z,99727.53
2024-01-15T00:28:15.771Z,99711.72
2024-01-15T00:33:17.441Z,99722.34
2024-01-15T00:38:19.127Z,99714.94
2024-01-15T00:43:20.643Z,99716.81
2024-01-15T00:48:22.221Z,99714.09
2024-01-15T00:53:23.868Z,99700.69
2024-01-15T00:58:25.435Z,99705.00
2024-01-15T01:03:27.047Z,99696.13
2024-01-15T01:08:28.564Z,99706.06
2024-01-15T01:13:30.145Z,99713.16
2024-01-15T01:18:31.791Z,99703.94
2024-01-15T01:23:33.330Z,99711.34
2024-01-15T01:28:34.863Z,99700.78
2024-01-15T01:33:36.431Z,99705.72
2024-01-15T01:38:38.834Z,99692.59
2024-01-15T01:43:40.390Z,99692.00
2024-01-15T01:48:42.032Z,99690.03
2024-01-15T01:53:45.369Z,99685.44
2024-01-15T01:58:48.130Z,99685.69
2024-01-15T02:03:49.871Z,99680.25
2024-01-15T02:08:51.532Z,99679.97
2024-01-15T02:13:53.150Z,99682.78
2024-01-15T02:18:54.742Z,99679.84
2024-01-15T02:23:56.436Z,99681.16
2024-01-15T02:28:58.000Z,99681.81
2024-01-15T02:33:59.621Z,99687.13
2024-01-15T02:39:01.191Z,99701.88
2024-01-15T02:44:02.705Z,99694.25
2024-01-15T02:49:04.361Z,99695.72
2024-01-15T02:54:05.971Z,99687.78
2024-01-15T02:59:07.460Z,99682.00
2024-01-15T03:04:09.102Z,99683.16
2024-01-15T03:09:10.759Z,99690.25
2024-01-15T03:14:12.254Z,99699.63
2024-01-15T03:19:13.860Z,99698.81
2024-01-15T03:24:15.417Z,99699.44
2024-01-15T03:29:16.952Z,99688.13
2024-01-15T03:34:18.553Z,99687.31
2024-01-15T03:39:20.138Z,99683.28
2024-01-15T03:44:21.644Z,99688.59
2024-01-15T03:49:23.214Z,99685.75
2024-01-15T03:54:24.787Z,99684.06
2024-01-15T03:59:26.278Z,99683.28
2024-01-15T04:04:27.903Z,99683.16
2024-01-15T04:09:29.537Z,99676.53
2024-01-15T04:14:31.063Z,99672.97
2024-01-15T04:19:32.594Z,99679.28
2024-01-15T04:24:34.192Z,99671.09
2024-01-15T04:29:38.410Z,99656.81
2024-01-15T04:34:41.585Z,99661.38
2024-01-15T04:39:43.164Z,99660.06
2024-01-15T04:44:44.648Z,99648.88
2024-01-15T04:49:46.204Z,99649.06
2024-01-15T04:54:47.812Z,99638.56
2024-01-15T04:59:49.335Z,99641.63
2024-01-15T05:04:50.815Z,99645.06
2024-01-15T05:09:52.294Z,99637.81
2024-01-15T05:14:53.833Z,99636.31
2024-01-15T05:19:55.512Z,99634.25
2024-01-15T05:24:57.115Z,99635.19
2024-01-15T05:29:58.621Z,99633.44
2024-01-15T05:35:00.264Z,99623.59
2024-01-15T05:40:02.010Z,99628.75
2024-01-15T05:45:03.810Z,99639.75
2024-01-15T05:50:05.542Z,99640.88
2024-01-15T05:55:07.279Z,99640.88
2024-01-15T06:00:09.067Z,99629.56
2024-01-15T06:05:10.703Z,99618.88
2024-01-15T06:10:12.195Z,99610.00
2024-01-15T06:15:13.779Z,99610.94
2024-01-15T06:20:15.412Z,99616.13
2024-01-15T06:25:16.917Z,99603.84
2024-01-15T06:30:18.594Z,99599.94
2024-01-15T06:35:22.610Z,99598.47
2024-01-15T06:40:25.158Z,99598.81
2024-01-15T06:45:26.768Z,99590.53
2024-01-15T06:50:28.306Z,99599.31
2024-01-15T06:55:29.818Z,99589.09
2024-01-15T07:00:31.555Z,99584.41
2024-01-15T07:05:33.138Z,99580.84
2024-01-15T07:10:37.170Z,99592.81
2024-01-15T07:15:39.038Z,99592.19
2024-01-15T07:20:40.520Z,99584.91
2024-01-15T07:25:42.116Z,99590.72
2024-01-15T07:30:43.913Z,99590.72
2024-01-15T07:35:45.514Z,99589.75
2024-01-15T07:40:47.082Z,99580.88
2024-01-15T07:45:48.705Z,99580.84
2024-01-15T07:50:50.249Z,99581.97
2024-01-15T07:55:51.820Z,99580.53
2024-01-15T08:00:53.469Z,99586.34
2024-01-15T08:05:55.044Z,99587.97
2024-01-15T08:10:57.202Z,99585.41
2024-01-15T08:15:58.834Z,99584.09
2024-01-15T08:21:00.398Z,99582.28
2024-01-15T08:26:01.912Z,99575.34
2024-01-15T08:31:03.572Z,99570.63
2024-01-15T08:36:05.252Z,99574.66
2024-01-15T08:41:06.742Z,99569.81
2024-01-15T08:46:08.566Z,99574.84
2024-01-15T08:51:10.334Z,99577.41
2024-01-15T08:56:12.287Z,99580.50
2024-01-15T09:01:14.062Z,99582.94
2024-01-15T09:06:15.744Z,99573.25
2024-01-15T09:11:17.372Z,99571.28
2024-01-15T09:16:19.058Z,99573.72
2024-01-15T09:21:21.196Z,99573.06
2024-01-15T09:26:22.782Z,99582.13
2024-01-15T09:31:24.364Z,99582.63
2024-01-15T09:36:26.014Z,99579.06
2024-01-15T09:41:27.838Z,99586.03
2024-01-15T09:46:29.484Z,99592.34
2024-01-15T09:51:32.466Z,99584.88
2024-01-15T09:56:33.990Z,99592.47
2024-01-15T10:01:37.748Z,99604.25
2024-01-15T10:06:39.996Z,99605.22
2024-01-15T10:11:45.091Z,99604.69
2024-01-15T10:16:46.653Z,99598.22
2024-01-15T10:21:48.310Z,99608.63
2024-01-15T10:26:49.854Z,99617.50
2024-01-15T10:31:51.590Z,99615.75
2024-01-15T10:36:53.487Z,99622.84
2024-01-15T10:41:55.134Z,99607.94
2024-01-15T10:46:57.812Z,99613.78
2024-01-15T10:51:59.616Z,99608.97
2024-01-15T10:57:01.455Z,99614.56
2024-01-15T11:02:03.180Z,99620.50
2024-01-15T11:07:06.394Z,99609.16
2024-01-15T11:12:12.032Z,99619.00
2024-01-15T11:17:14.044Z,99618.53
2024-01-15T11:22:30.784Z,99619.75
2024-01-15T11:27:45.975Z,99630.72
2024-01-15T11:32:47.863Z,99638.09
2024-01-15T11:37:52.435Z,99645.50
2024-01-15T11:42:54.360Z,99633.69
2024-01-15T11:47:55.919Z,99632.13
2024-01-15T11:53:03.494Z,99636.63
2024-01-15T11:58:10.296Z,99645.03
2024-01-15T12:03:11.983Z,99643.44
2024-01-15T12:08:13.507Z,99629.13
2024-01-15T12:13:15.871Z,99631.41
2024-01-15T12:18:19.798Z,99631.16
2024-01-15T12:23:21.567Z,99623.06
2024-01-15T12:28:23.060Z,99618.72
2024-01-15T12:33:24.619Z,99614.13
2024-01-15T12:38:26.224Z,99616.91
2024-01-15T12:43:27.694Z,99628.94
2024-01-15T12:48:29.334Z,99626.34
2024-01-15T12:53:30.931Z,99620.81
2024-01-15T12:58:32.452Z,99626.00
2024-01-15T13:03:34.161Z,99632.44
2024-01-15T13:08:35.807Z,99639.56
2024-01-15T13:13:37.460Z,99655.72
2024-01-15T13:18:39.176Z,99634.53
2024-01-15T13:23:40.870Z,99637.47
2024-01-15T13:28:42.484Z,99638.63
2024-01-15T13:33:44.906Z,99661.78
2024-01-15T13:38:46.693Z,99648.81
2024-01-15T13:43:50.619Z,99649.81
2024-01-15T13:48:52.232Z,99657.25
2024-01-15T13:53:53.764Z,99655.78
2024-01-15T13:58:55.257Z,99659.81
2024-01-15T14:03:56.846Z,99657.44
2024-01-15T14:08:58.392Z,99666.16
2024-01-15T14:13:59.892Z,99669.41
2024-01-15T14:19:01.463Z,99666.19
2024-01-15T14:24:03.062Z,99688.16
2024-01-15T14:29:06.413Z,99697.41
2024-01-15T14:34:08.033Z,99708.38
2024-01-15T14:39:09.636Z,99702.38
2024-01-15T14:44:11.163Z,99727.97
2024-01-15T14:49:12.752Z,99732.66
2024-01-15T14:54:14.343Z,99739.22
2024-01-15T14:59:15.922Z,99738.09
2024-01-15T15:04:17.512Z,99745.81
2024-01-15T15:09:19.721Z,99745.13
2024-01-15T15:14:21.206Z,99746.38
2024-01-15T15:19:22.996Z,99769.16
2024-01-15T15:24:24.604Z,99766.34
2024-01-15T15:29:26.249Z,99775.50
2024-01-15T15:34:27.841Z,99787.22
2024-01-15T15:39:29.386Z,99807.41
2024-01-15T15:44:30.862Z,99813.31
2024-01-15T15:49:32.621Z,99825.03
2024-01-15T15:54:34.582Z,99838.50
2024-01-15T15:59:36.381Z,99853.34
2024-01-15T16:04:38.023Z,99861.34
2024-01-15T16:09:39.649Z,99871.50
2024-01-15T16:14:41.279Z,99866.31
2024-01-15T16:23:26.607Z,99876.59
2024-01-15T16:25:05.968Z,99876.41
2024-01-15T16:30:17.112Z,99894.47
2024-01-15T16:35:26.849Z,99902.13
2024-01-15T16:40:29.958Z,99897.22
2024-01-15T16:45:31.618Z,99906.25
2024-01-15T16:50:33.198Z,99912.69
2024-01-15T16:55:34.737Z,99910.91
2024-01-15T17:00:36.433Z,99909.72
2024-01-15T17:05:39.072Z,99925.25
2024-01-15T17:10:41.809Z,99927.53
2024-01-15T17:15:43.516Z,99924.28
2024-01-15T17:20:45.074Z,99929.47
2024-01-15T17:25:46.898Z,99930.28
2024-01-15T17:30:48.419Z,99930.56
2024-01-15T17:35:57.265Z,99954.22
2024-01-15T17:40:59.030Z,99950.31
2024-01-15T17:46:00.695Z,99944.63
2024-01-15T17:51:02.177Z,99963.88
2024-01-15T17:56:03.782Z,99966.09
2024-01-15T18:01:05.339Z,99970.69
2024-01-15T18:06:06.980Z,99982.72
2024-01-15T18:11:08.530Z,99995.81
2024-01-15T18:16:10.024Z,100003.88
2024-01-15T18:21:11.532Z,99999.56
2024-01-15T18:26:13.916Z,100019.69
2024-01-15T18:31:15.425Z,100025.03
2024-01-15T18:36:17.003Z,100020.97
2024-01-15T18:41:21.952Z,100033.06
2024-01-15T18:46:23.479Z,100034.50
2024-01-15T18:51:25.064Z,100040.75
2024-01-15T18:56:26.556Z,100049.13
2024-01-15T19:01:28.770Z,100048.84
2024-01-15T19:06:30.313Z,100045.72
2024-01-15T19:11:31.832Z,100060.22
2024-01-15T19:16:33.340Z,100061.84
2024-01-15T19:21:34.821Z,100070.53
2024-01-15T19:26:36.380Z,100075.94
2024-01-15T19:31:37.928Z,100074.41
2024-01-15T19:36:39.410Z,100078.47
2024-01-15T19:41:41.011Z,100083.84
2024-01-15T19:46:42.607Z,100094.19
2024-01-15T19:51:44.095Z,100099.84
2024-01-15T19:56:45.711Z,100105.25
2024-01-15T20:01:47.310Z,100110.31
2024-01-15T20:06:48.791Z,100109.88
2024-01-15T20:11:50.308Z,100115.88
2024-01-15T20:16:51.820Z,100113.72
2024-01-15T20:21:53.729Z,100134.03
2024-01-15T20:26:56.217Z,100145.31
2024-01-15T20:31:57.693Z,100144.63
2024-01-15T20:36:59.220Z,100141.00
2024-01-15T20:42:00.759Z,100152.66
2024-01-15T20:47:02.271Z,100153.66
2024-01-15T20:52:03.850Z,100157.72
2024-01-15T20:57:05.443Z,100157.00
2024-01-15T21:02:06.939Z,100156.56
2024-01-15T21:07:08.418Z,100169.78
2024-01-15T21:12:11.501Z,100175.81
2024-01-15T21:17:13.292Z,100172.41
2024-01-15T21:22:14.828Z,100169.81
2024-01-15T21:27:16.545Z,100185.34
2024-01-15T21:32:18.077Z,100187.13
2024-01-15T21:37:19.580Z,100182.16
2024-01-15T21:42:21.096Z,100182.53
2024-01-15T21:47:22.657Z,100183.19
2024-01-15T21:52:24.193Z,100175.16
2024-01-15T21:57:25.632Z,100191.34
2024-01-15T22:02:27.169Z,100193.78
2024-01-15T22:07:28.780Z,100196.66
2024-01-15T22:12:30.299Z,100204.50
2024-01-15T22:17:31.975Z,100209.16
2024-01-15T22:22:33.561Z,100205.84
2024-01-15T22:27:35.067Z,100225.31
2024-01-15T22:32:36.712Z,100214.97
2024-01-15T22:37:38.276Z,100219.41
2024-01-15T22:42:39.803Z,100234.28
2024-01-15T22:47:41.390Z,100238.66
2024-01-15T22:52:42.938Z,100244.56
2024-01-15T22:57:44.434Z,100244.06
2024-01-15T23:02:46.843Z,100240.28
2024-01-15T23:07:49.866Z,100254.47
2024-01-15T23:12:51.348Z,100256.91
2024-01-15T23:17:53.020Z,100254.47
2024-01-15T23:22:54.680Z,100268.75
2024-01-15T23:27:56.313Z,100272.22
2024-01-15T23:32:57.934Z,100274.00
2024-01-15T23:37:59.485Z,100275.03
2024-01-15T23:43:01.609Z,100278.41
2024-01-15T23:48:03.206Z,100290.94
2024-01-15T23:53:05.025Z,100273.53
2024-01-15T23:58:06.530Z,100277.47
